Fargo, ND (58102)

2:18 PM CDT on August 28, 2016 (GMT -0500)
Hector International | | Change Station

Elev 899 ft 46.91 °N, 96.81 °W | Updated 25 minutes ago

Clear
Clear
83 °F
Feels Like 85 °F
N
12
Wind Variable Wind from SSE
Gusts 26 mph

Today
High -- | Low -- °F
--% Chance of Precip.
Yesterday
High -- | Low -- °F
Precip. -- in
Pressure 29.96 in
Visibility 10.0 miles
Clouds Clear
Heat Index 85 °F
Dew Point 66 °F
Humidity 56%
Rainfall 0.00 in
Snow Depth Not available.
6:42 AM 8:13 PM
Waning Crescent, 14% visible
METAR KFAR 281853Z 16010G23KT 10SM CLR 28/19 A2996 RMK AO2 PK WND 17026/1821 SLP143 T02830189
Pressure 29.96 in
Visibility 10.0 miles
Clouds Clear
Heat Index 85 °F
Dew Point 66 °F
Humidity 56%
Rainfall 0.00 in
Snow Depth Not available.
6:42 AM 8:13 PM
Waning Crescent, 14% visible
METAR KFAR 281853Z 16010G23KT 10SM CLR 28/19 A2996 RMK AO2 PK WND 17026/1821 SLP143 T02830189

10-Day Weather Forecast

Almanac

Astronomy

Aug. 28, 2016 Rise Set
Actual Time
Civil Twilight
Nautical Twilight
Astronomical Twilight
Moon
Length of Visible Light
Length of Day
Tomorrow will be .
, % of the Moon is Illuminated

Today's Extremes

State Highs State Lows

Community

WunderPhotos

Upload Photos

1,935,660 photos uploaded!

WunderBlog® & News

Nearby

Air Quality

  Air Quality AQ Index Pollutant
Not available.

Snow Depth

Station Depth Elevation

Earthquake Activity

City Distance Mag. Time & Date
Minimum magnitude displayed is 2.5.

Coastal Water Temperatures

Place Temperature

Stations

Nearby Weather Stations

Station Location Temp. Windchill Dew Point Humidity Wind Precip. Elev Updated Type
                   

Watches & Warnings

There are currently no watches in effect.